Time;durP1;ratioP1;P1;durP2;ratioP2;P2;SDS_P1;SDS_P2;PMS_P1;PMS_P2;Temp;Humidity;BMP_temperature;BMP_pressure;BME280_temperature;BME280_humidity;BME280_pressure;Samples;Min_cycle;Max_cycle;Signal;HPM_P1;HPM_P2
2023/07/09 00:00:48;;;;;;;10.60;6.90;;;;;;;;;;5092626;28;20044;-82
2023/07/09 00:03:16;;;;;;;7.85;7.05;;;;;;;;;;5091639;28;20048;-83
2023/07/09 00:05:46;;;;;;;8.23;6.72;;;;;;;;;;5091843;28;20047;-84
2023/07/09 00:08:26;;;;;;;9.82;7.18;;;;;;;;;;5093025;28;20052;-84
2023/07/09 00:10:54;;;;;;;7.32;6.60;;;;;;;;;;5091668;28;20044;-84
2023/07/09 00:13:22;;;;;;;8.00;6.90;;;;;;;;;;5091413;28;20556;-84
2023/07/09 00:15:49;;;;;;;7.82;6.85;;;;;;;;;;5091599;28;20125;-84
2023/07/09 00:18:17;;;;;;;8.32;7.55;;;;;;;;;;5092724;28;20412;-84
2023/07/09 00:20:47;;;;;;;8.00;7.18;;;;;;;;;;5091378;28;20059;-84
2023/07/09 00:23:16;;;;;;;10.73;7.45;;;;;;;;;;5091538;28;20097;-84
2023/07/09 00:25:44;;;;;;;10.80;7.47;;;;;;;;;;5091523;28;20044;-84
2023/07/09 00:28:14;;;;;;;8.43;7.55;;;;;;;;;;5091563;28;20063;-83
2023/07/09 00:30:42;;;;;;;11.73;7.80;;;;;;;;;;5092212;28;20048;-84
2023/07/09 00:33:20;;;;;;;10.85;6.97;;;;;;;;;;5091131;28;20537;-84
2023/07/09 00:35:50;;;;;;;8.63;7.72;;;;;;;;;;5091355;28;20101;-84
2023/07/09 00:38:21;;;;;;;8.27;7.03;;;;;;;;;;5091137;28;20484;-84
2023/07/09 00:41:03;;;;;;;7.97;7.18;;;;;;;;;;5090955;28;20044;-84
2023/07/09 00:43:34;;;;;;;8.88;7.82;;;;;;;;;;5091766;28;20048;-84
2023/07/09 00:46:14;;;;;;;9.90;7.80;;;;;;;;;;5090962;28;20044;-84
2023/07/09 00:48:42;;;;;;;10.23;7.80;;;;;;;;;;5089395;28;20056;-84
2023/07/09 00:51:17;;;;;;;9.38;7.07;;;;;;;;;;5089193;28;20075;-84
2023/07/09 00:53:46;;;;;;;8.85;7.80;;;;;;;;;;5090387;28;20077;-84
2023/07/09 00:56:31;;;;;;;8.40;7.50;;;;;;;;;;5090639;28;20079;-84
2023/07/09 00:59:04;;;;;;;8.07;7.10;;;;;;;;;;5090107;28;20098;-84
2023/07/09 01:01:31;;;;;;;8.23;7.43;;;;;;;;;;5090752;28;20130;-84
2023/07/09 01:04:00;;;;;;;7.85;6.97;;;;;;;;;;5093502;28;20047;-84
2023/07/09 01:06:32;;;;;;;8.43;7.63;;;;;;;;;;5095543;28;20077;-84
2023/07/09 01:09:00;;;;;;;9.02;7.13;;;;;;;;;;5095888;28;20093;-84
2023/07/09 01:11:31;;;;;;;8.55;7.28;;;;;;;;;;5094200;28;20062;-84
2023/07/09 01:14:03;;;;;;;9.27;8.13;;;;;;;;;;5095627;28;20052;-84
2023/07/09 01:16:35;;;;;;;13.00;7.35;;;;;;;;;;5095410;28;20067;-84
2023/07/09 01:19:04;;;;;;;7.85;6.93;;;;;;;;;;5095472;28;20516;-84
2023/07/09 01:21:32;;;;;;;9.75;8.00;;;;;;;;;;5094175;28;20451;-84
2023/07/09 01:24:11;;;;;;;7.85;6.95;;;;;;;;;;5095406;28;20063;-84
2023/07/09 01:26:38;;;;;;;9.05;8.10;;;;;;;;;;5093858;28;20064;-84
2023/07/09 01:29:06;;;;;;;9.05;7.60;;;;;;;;;;5094255;28;20048;-84
2023/07/09 01:31:33;;;;;;;9.25;8.25;;;;;;;;;;5095012;28;20407;-84
2023/07/09 01:34:01;;;;;;;7.93;7.22;;;;;;;;;;5093895;28;20055;-84
2023/07/09 01:36:28;;;;;;;10.90;7.95;;;;;;;;;;5094579;28;20097;-84
2023/07/09 01:38:56;;;;;;;8.68;7.80;;;;;;;;;;5095514;28;20048;-84
2023/07/09 01:41:24;;;;;;;10.60;8.02;;;;;;;;;;5093858;28;20113;-84
2023/07/09 01:43:51;;;;;;;8.55;7.72;;;;;;;;;;5094435;28;20056;-84
2023/07/09 01:46:18;;;;;;;8.45;7.65;;;;;;;;;;5094405;28;20093;-84
2023/07/09 01:48:45;;;;;;;8.52;7.57;;;;;;;;;;5095558;28;20051;-84
2023/07/09 01:51:16;;;;;;;10.45;8.52;;;;;;;;;;5093955;28;20488;-84
2023/07/09 01:53:44;;;;;;;10.57;8.25;;;;;;;;;;5094109;28;20477;-83
2023/07/09 01:56:11;;;;;;;10.43;8.07;;;;;;;;;;5094213;28;20105;-84
2023/07/09 01:58:41;;;;;;;9.98;8.15;;;;;;;;;;5095239;28;20048;-84
2023/07/09 02:01:10;;;;;;;8.65;7.75;;;;;;;;;;5095182;28;20409;-83
2023/07/09 02:03:37;;;;;;;8.25;7.47;;;;;;;;;;5095021;28;20056;-84
2023/07/09 02:06:09;;;;;;;9.30;7.65;;;;;;;;;;5095194;28;20083;-84
2023/07/09 02:08:37;;;;;;;10.05;8.23;;;;;;;;;;5093843;28;20526;-84
2023/07/09 02:11:05;;;;;;;8.63;7.72;;;;;;;;;;5093713;28;20521;-84
2023/07/09 02:13:32;;;;;;;12.02;7.90;;;;;;;;;;5094805;28;20044;-84
2023/07/09 02:15:59;;;;;;;9.45;8.50;;;;;;;;;;5095153;28;20079;-84
2023/07/09 02:18:28;;;;;;;7.70;6.95;;;;;;;;;;5094886;28;20073;-84
2023/07/09 02:20:56;;;;;;;9.25;8.27;;;;;;;;;;5093598;28;20507;-84
2023/07/09 02:23:26;;;;;;;11.00;7.38;;;;;;;;;;5093597;28;20044;-83
2023/07/09 02:25:54;;;;;;;8.70;7.80;;;;;;;;;;5094844;28;20044;-84
2023/07/09 02:28:21;;;;;;;9.25;7.68;;;;;;;;;;5093418;28;20488;-84
2023/07/09 02:30:48;;;;;;;8.40;7.60;;;;;;;;;;5093161;28;20047;-84
2023/07/09 02:33:16;;;;;;;9.10;7.53;;;;;;;;;;5093425;28;20052;-84
2023/07/09 02:35:43;;;;;;;9.02;7.43;;;;;;;;;;5094417;28;20048;-84
2023/07/09 02:38:10;;;;;;;8.05;7.35;;;;;;;;;;5093184;28;20491;-84
2023/07/09 02:40:39;;;;;;;9.55;8.32;;;;;;;;;;5094379;28;20109;-84
2023/07/09 02:43:06;;;;;;;9.25;8.35;;;;;;;;;;5094159;28;20120;-84
2023/07/09 02:45:33;;;;;;;10.50;8.45;;;;;;;;;;5093229;28;20040;-84
2023/07/09 02:48:01;;;;;;;12.07;8.77;;;;;;;;;;5092623;28;20462;-84
2023/07/09 02:50:28;;;;;;;9.05;8.15;;;;;;;;;;5094117;28;20074;-84
2023/07/09 02:52:56;;;;;;;10.23;8.48;;;;;;;;;;5094046;28;20117;-84
2023/07/09 02:55:23;;;;;;;10.13;8.77;;;;;;;;;;5092970;28;20486;-84
2023/07/09 02:57:51;;;;;;;9.05;8.15;;;;;;;;;;5094002;28;20047;-84
2023/07/09 03:00:19;;;;;;;11.57;9.00;;;;;;;;;;5092935;28;20048;-84
2023/07/09 03:02:46;;;;;;;9.55;8.60;;;;;;;;;;5092815;28;20041;-84
2023/07/09 03:05:13;;;;;;;10.23;8.93;;;;;;;;;;5093815;28;20069;-84
2023/07/09 03:07:40;;;;;;;10.93;8.43;;;;;;;;;;5092823;28;20044;-83
2023/07/09 03:10:08;;;;;;;11.18;8.52;;;;;;;;;;5092876;28;20385;-84
2023/07/09 03:12:35;;;;;;;8.68;7.82;;;;;;;;;;5092358;28;20261;-84
2023/07/09 03:15:02;;;;;;;9.10;8.30;;;;;;;;;;5092804;28;20101;-83
2023/07/09 03:17:30;;;;;;;9.45;8.55;;;;;;;;;;5093687;28;20044;-83
2023/07/09 03:19:57;;;;;;;9.90;8.82;;;;;;;;;;5093854;28;20050;-84
2023/07/09 03:22:24;;;;;;;11.00;8.80;;;;;;;;;;5093708;28;20044;-83
2023/07/09 03:24:51;;;;;;;8.93;8.07;;;;;;;;;;5092260;28;20412;-84
2023/07/09 03:27:19;;;;;;;9.50;8.02;;;;;;;;;;5092172;28;20052;-84
2023/07/09 03:29:46;;;;;;;9.30;8.40;;;;;;;;;;5092472;28;20044;-84
2023/07/09 03:32:13;;;;;;;10.45;9.35;;;;;;;;;;5092215;28;20060;-84
2023/07/09 03:34:40;;;;;;;10.02;8.75;;;;;;;;;;5092239;28;20097;-83
2023/07/09 03:37:08;;;;;;;9.40;8.50;;;;;;;;;;5092183;28;20484;-84
2023/07/09 03:39:35;;;;;;;12.25;8.95;;;;;;;;;;5092100;28;20105;-84
2023/07/09 03:42:03;;;;;;;18.15;9.20;;;;;;;;;;5091907;28;20079;-84
2023/07/09 03:44:30;;;;;;;9.50;8.50;;;;;;;;;;5092137;28;20046;-84
2023/07/09 03:46:57;;;;;;;13.23;8.50;;;;;;;;;;5093249;28;20074;-84
2023/07/09 03:49:25;;;;;;;9.50;8.50;;;;;;;;;;5092104;28;20047;-84
2023/07/09 03:51:52;;;;;;;9.45;8.45;;;;;;;;;;5091866;28;20055;-84
2023/07/09 03:54:19;;;;;;;12.00;9.00;;;;;;;;;;5091910;28;20464;-83
2023/07/09 03:56:46;;;;;;;9.93;8.73;;;;;;;;;;5091834;28;20043;-84
2023/07/09 03:59:13;;;;;;;10.00;8.38;;;;;;;;;;5091712;28;20108;-84
2023/07/09 04:01:46;;;;;;;9.10;8.20;;;;;;;;;;5092942;28;20438;-84
2023/07/09 04:04:13;;;;;;;10.15;9.07;;;;;;;;;;5092487;28;20135;-84
2023/07/09 04:06:41;;;;;;;9.75;8.70;;;;;;;;;;5092450;28;20044;-84
2023/07/09 04:09:08;;;;;;;10.15;9.15;;;;;;;;;;5092672;28;20098;-84
2023/07/09 04:11:35;;;;;;;9.05;8.25;;;;;;;;;;5091142;28;20432;-84
2023/07/09 04:14:03;;;;;;;8.77;7.97;;;;;;;;;;5091225;28;20105;-83
2023/07/09 04:16:30;;;;;;;8.77;7.95;;;;;;;;;;5091446;28;20048;-83
2023/07/09 04:18:57;;;;;;;10.45;8.85;;;;;;;;;;5091415;28;20056;-82
2023/07/09 04:21:24;;;;;;;11.27;8.75;;;;;;;;;;5091025;28;20072;-82
2023/07/09 04:23:51;;;;;;;9.02;8.18;;;;;;;;;;5091517;28;20102;-83
2023/07/09 04:26:19;;;;;;;9.13;8.23;;;;;;;;;;5091261;28;20071;-82
2023/07/09 04:28:46;;;;;;;9.18;8.32;;;;;;;;;;5091142;28;20495;-83
2023/07/09 04:31:13;;;;;;;9.77;8.50;;;;;;;;;;5091183;28;20097;-83
2023/07/09 04:33:40;;;;;;;9.38;8.48;;;;;;;;;;5090907;28;20058;-82
2023/07/09 04:36:08;;;;;;;9.65;8.15;;;;;;;;;;5091445;28;20473;-83
2023/07/09 04:38:36;;;;;;;9.38;8.40;;;;;;;;;;5093585;28;20056;-83
2023/07/09 04:41:03;;;;;;;11.07;7.68;;;;;;;;;;5096179;28;20092;-83
2023/07/09 04:43:31;;;;;;;9.05;8.15;;;;;;;;;;5095243;28;20109;-83
2023/07/09 04:45:58;;;;;;;11.77;7.82;;;;;;;;;;5094937;28;20048;-82
2023/07/09 04:48:26;;;;;;;8.90;7.32;;;;;;;;;;5095297;28;20401;-83
2023/07/09 04:50:53;;;;;;;8.63;7.82;;;;;;;;;;5095428;28;20488;-82
2023/07/09 04:53:22;;;;;;;8.30;7.60;;;;;;;;;;5094900;28;20044;-82
2023/07/09 04:55:49;;;;;;;7.80;7.03;;;;;;;;;;5095087;28;20147;-82
2023/07/09 04:58:18;;;;;;;10.95;7.75;;;;;;;;;;5096497;28;20080;-82
2023/07/09 05:00:45;;;;;;;11.60;7.40;;;;;;;;;;5094728;28;20105;-83
2023/07/09 05:03:13;;;;;;;8.90;7.32;;;;;;;;;;5096182;28;20101;-83
2023/07/09 05:05:44;;;;;;;9.60;7.65;;;;;;;;;;5094597;28;20594;-83
2023/07/09 05:08:11;;;;;;;8.52;7.60;;;;;;;;;;5094768;28;20067;-83
2023/07/09 05:10:46;;;;;;;8.60;7.40;;;;;;;;;;5094513;28;20480;-83
2023/07/09 05:13:13;;;;;;;9.18;7.22;;;;;;;;;;5094826;28;20040;-82
2023/07/09 05:15:41;;;;;;;9.82;6.85;;;;;;;;;;5095900;28;20380;-82
2023/07/09 05:18:09;;;;;;;7.65;6.60;;;;;;;;;;5095887;28;20044;-83
2023/07/09 05:20:36;;;;;;;7.38;6.68;;;;;;;;;;5094396;28;20064;-83
2023/07/09 05:23:03;;;;;;;7.15;6.45;;;;;;;;;;5096355;28;20044;-83
2023/07/09 05:25:31;;;;;;;11.02;6.60;;;;;;;;;;5094550;28;20052;-83
2023/07/09 05:27:58;;;;;;;7.88;6.10;;;;;;;;;;5094385;28;20040;-83
2023/07/09 05:30:26;;;;;;;6.80;6.15;;;;;;;;;;5094351;28;20047;-83
2023/07/09 05:32:55;;;;;;;7.15;6.18;;;;;;;;;;5094074;28;20052;-82
2023/07/09 05:35:23;;;;;;;6.93;5.65;;;;;;;;;;5094340;28;20407;-82
2023/07/09 05:37:50;;;;;;;6.57;5.28;;;;;;;;;;5095388;28;20040;-83
2023/07/09 05:40:17;;;;;;;7.53;5.60;;;;;;;;;;5094033;28;20500;-83
2023/07/09 05:42:45;;;;;;;7.80;5.95;;;;;;;;;;5093903;28;20114;-82
2023/07/09 05:45:12;;;;;;;6.22;5.63;;;;;;;;;;5094276;28;20051;-83
2023/07/09 05:47:39;;;;;;;7.05;5.72;;;;;;;;;;5094100;28;20085;-82
2023/07/09 05:50:07;;;;;;;21.00;6.38;;;;;;;;;;5093203;28;20084;-83
2023/07/09 05:52:34;;;;;;;12.60;6.15;;;;;;;;;;5093537;28;20484;-83
2023/07/09 05:55:01;;;;;;;14.02;6.00;;;;;;;;;;5093825;28;20048;-83
2023/07/09 05:57:29;;;;;;;24.00;6.65;;;;;;;;;;5093885;28;20044;-83
2023/07/09 05:59:56;;;;;;;14.90;5.80;;;;;;;;;;5093822;28;20605;-83
2023/07/09 06:02:23;;;;;;;9.13;5.80;;;;;;;;;;5094751;28;20048;-83
2023/07/09 06:04:51;;;;;;;9.90;5.45;;;;;;;;;;5095002;28;20044;-83
2023/07/09 06:07:18;;;;;;;13.27;6.05;;;;;;;;;;5093314;28;20056;-83
2023/07/09 06:09:45;;;;;;;6.15;5.38;;;;;;;;;;5093509;28;20055;-83
2023/07/09 06:12:13;;;;;;;6.22;5.13;;;;;;;;;;5093349;28;20044;-83
2023/07/09 06:14:40;;;;;;;7.20;5.55;;;;;;;;;;5094420;28;20059;-83
2023/07/09 06:17:08;;;;;;;6.13;5.63;;;;;;;;;;5093609;28;20044;-83
2023/07/09 06:19:35;;;;;;;6.35;5.57;;;;;;;;;;5093716;28;20052;-83
2023/07/09 06:22:02;;;;;;;11.10;5.22;;;;;;;;;;5094714;28;20059;-83
2023/07/09 06:24:30;;;;;;;7.20;5.15;;;;;;;;;;5093581;28;20117;-82
2023/07/09 06:26:57;;;;;;;12.60;5.57;;;;;;;;;;5094259;28;20063;-82
2023/07/09 06:29:24;;;;;;;6.22;5.45;;;;;;;;;;5093470;28;20052;-83
2023/07/09 06:31:52;;;;;;;9.85;5.57;;;;;;;;;;5093901;28;20048;-83
2023/07/09 06:34:19;;;;;;;8.48;5.60;;;;;;;;;;5092468;28;20080;-83
2023/07/09 06:36:46;;;;;;;11.93;5.32;;;;;;;;;;5092518;28;20055;-82
2023/07/09 06:39:14;;;;;;;14.07;5.90;;;;;;;;;;5093858;28;20101;-83
2023/07/09 06:41:41;;;;;;;17.15;6.25;;;;;;;;;;5091729;28;20060;-83
2023/07/09 06:44:09;;;;;;;21.90;6.22;;;;;;;;;;5092536;28;20059;-82
2023/07/09 06:46:37;;;;;;;14.35;6.25;;;;;;;;;;5092103;28;20411;-83
2023/07/09 06:49:07;;;;;;;6.88;5.30;;;;;;;;;;5092380;28;20504;-82
2023/07/09 06:51:35;;;;;;;12.57;5.70;;;;;;;;;;5091309;28;20168;-82
2023/07/09 06:54:02;;;;;;;12.20;6.18;;;;;;;;;;5092191;28;20488;-83
2023/07/09 06:56:29;;;;;;;15.50;6.18;;;;;;;;;;5091946;28;20561;-82
2023/07/09 06:58:56;;;;;;;12.80;5.63;;;;;;;;;;5092373;28;20052;-83
2023/07/09 07:01:24;;;;;;;8.57;4.95;;;;;;;;;;5092276;28;20051;-83
2023/07/09 07:03:51;;;;;;;8.55;4.78;;;;;;;;;;5092875;28;20147;-84
2023/07/09 07:06:18;;;;;;;9.93;5.18;;;;;;;;;;5092404;28;20109;-83
2023/07/09 07:08:45;;;;;;;6.63;5.10;;;;;;;;;;5092906;28;20044;-84
2023/07/09 07:11:13;;;;;;;6.22;4.45;;;;;;;;;;5092287;28;20048;-84
2023/07/09 07:13:41;;;;;;;9.65;5.28;;;;;;;;;;5092471;28;20541;-83
2023/07/09 07:16:10;;;;;;;16.23;6.00;;;;;;;;;;5093995;28;20071;-84
2023/07/09 07:18:37;;;;;;;13.82;5.78;;;;;;;;;;5092426;28;20511;-84
2023/07/09 07:21:05;;;;;;;21.42;5.53;;;;;;;;;;5093831;28;20044;-84
2023/07/09 07:23:33;;;;;;;13.32;5.38;;;;;;;;;;5092642;28;20050;-85
2023/07/09 07:26:00;;;;;;;6.32;5.10;;;;;;;;;;5092909;28;20050;-85
2023/07/09 07:28:28;;;;;;;18.85;6.32;;;;;;;;;;5093318;28;20048;-84
2023/07/09 07:30:58;;;;;;;10.05;5.18;;;;;;;;;;5093230;28;20044;-85
2023/07/09 07:33:26;;;;;;;10.15;5.15;;;;;;;;;;5092338;28;20079;-85
2023/07/09 07:35:53;;;;;;;9.65;5.40;;;;;;;;;;5093506;28;20105;-86
2023/07/09 07:38:40;;;;;;;7.25;5.20;;;;;;;;;;5091688;28;20044;-85
2023/07/09 07:41:08;;;;;;;9.93;4.80;;;;;;;;;;5092313;28;20100;-85
2023/07/09 07:43:35;;;;;;;9.27;5.10;;;;;;;;;;5092144;28;20060;-87
2023/07/09 07:46:02;;;;;;;11.82;5.05;;;;;;;;;;5092908;28;20549;-86
2023/07/09 07:48:31;;;;;;;8.68;5.25;;;;;;;;;;5092437;28;20048;-87
2023/07/09 07:51:03;;;;;;;5.65;4.93;;;;;;;;;;5092924;28;20109;-86
2023/07/09 07:53:30;;;;;;;6.32;5.03;;;;;;;;;;5092633;28;20048;-86
2023/07/09 07:55:58;;;;;;;9.95;5.43;;;;;;;;;;5093885;28;20051;-86
2023/07/09 07:58:26;;;;;;;9.55;4.80;;;;;;;;;;5093443;28;20130;-86
2023/07/09 08:00:56;;;;;;;8.80;4.88;;;;;;;;;;5093113;28;20048;-87
2023/07/09 08:03:24;;;;;;;5.70;5.05;;;;;;;;;;5092694;28;20051;-87
2023/07/09 08:05:52;;;;;;;8.95;5.47;;;;;;;;;;5092463;28;20048;-87
2023/07/09 08:08:20;;;;;;;10.02;4.78;;;;;;;;;;5092647;28;20072;-87
2023/07/09 08:10:48;;;;;;;5.72;5.07;;;;;;;;;;5093692;28;20048;-93
2023/07/09 08:13:15;;;;;;;7.57;5.50;;;;;;;;;;5092539;28;20527;-89
2023/07/09 08:15:44;;;;;;;6.50;4.78;;;;;;;;;;5092527;28;20048;-87
2023/07/09 08:18:12;;;;;;;5.18;4.30;;;;;;;;;;5092389;28;20484;-89
2023/07/09 08:20:43;;;;;;;4.60;4.28;;;;;;;;;;5092579;28;20056;-91
2023/07/09 08:23:10;;;;;;;4.75;4.30;;;;;;;;;;5092517;28;20466;-87
2023/07/09 08:25:37;;;;;;;4.88;4.47;;;;;;;;;;5092596;28;20532;-87
2023/07/09 08:28:05;;;;;;;5.28;4.50;;;;;;;;;;5092411;28;20458;-90
2023/07/09 08:30:32;;;;;;;5.15;4.50;;;;;;;;;;5092337;28;20072;-91
2023/07/09 08:33:00;;;;;;;5.43;4.05;;;;;;;;;;5092173;28;20055;-89
2023/07/09 08:35:27;;;;;;;4.88;4.38;;;;;;;;;;5092796;28;20056;-88
2023/07/09 08:38:03;;;;;;;5.30;4.15;;;;;;;;;;5092426;28;20044;-88
2023/07/09 08:40:30;;;;;;;6.60;4.43;;;;;;;;;;5092065;28;20048;-89
2023/07/09 08:43:06;;;;;;;4.50;4.10;;;;;;;;;;5092004;28;20060;-89
2023/07/09 08:45:45;;;;;;;4.38;4.00;;;;;;;;;;5092252;28;20056;-89
2023/07/09 08:48:16;;;;;;;4.47;3.83;;;;;;;;;;5092453;28;20052;-90
2023/07/09 08:50:46;;;;;;;5.53;3.90;;;;;;;;;;5094196;28;20484;-87
2023/07/09 08:53:29;;;;;;;5.38;3.75;;;;;;;;;;5093184;28;20073;-92
2023/07/09 08:55:57;;;;;;;4.93;3.83;;;;;;;;;;5092274;28;20086;-88
2023/07/09 08:58:26;;;;;;;4.40;3.78;;;;;;;;;;5091697;28;20056;-92
2023/07/09 09:00:58;;;;;;;3.95;3.65;;;;;;;;;;5092534;28;20052;-89
2023/07/09 09:03:31;;;;;;;6.07;3.85;;;;;;;;;;5092667;28;20051;-89
2023/07/09 09:05:58;;;;;;;5.50;3.80;;;;;;;;;;5091892;28;20052;-92
2023/07/09 09:08:26;;;;;;;4.00;3.70;;;;;;;;;;5092928;28;20488;-88
2023/07/09 09:10:58;;;;;;;4.30;3.90;;;;;;;;;;5092092;28;20052;-89
2023/07/09 09:13:28;;;;;;;4.97;3.80;;;;;;;;;;5092664;28;20113;-93
2023/07/09 09:15:57;;;;;;;4.13;3.72;;;;;;;;;;5091911;28;20056;-86
2023/07/09 09:18:27;;;;;;;6.53;3.97;;;;;;;;;;5092718;28;20044;-86
2023/07/09 09:21:04;;;;;;;5.45;4.15;;;;;;;;;;5092620;28;20062;-87
2023/07/09 09:23:43;;;;;;;8.68;4.60;;;;;;;;;;5092100;28;20055;-92
2023/07/09 09:26:18;;;;;;;4.20;3.80;;;;;;;;;;5095065;28;20055;-87
2023/07/09 09:28:45;;;;;;;4.43;4.10;;;;;;;;;;5095896;28;20044;-89
2023/07/09 09:31:12;;;;;;;6.60;3.78;;;;;;;;;;5095048;28;20052;-85
2023/07/09 09:33:44;;;;;;;4.55;4.15;;;;;;;;;;5095035;28;20090;-87
2023/07/09 09:36:15;;;;;;;4.05;3.72;;;;;;;;;;5095461;28;20157;-87
2023/07/09 09:38:44;;;;;;;4.55;4.18;;;;;;;;;;5094876;28;20089;-85
2023/07/09 09:41:15;;;;;;;4.40;4.05;;;;;;;;;;5094907;28;20078;-84
2023/07/09 09:43:44;;;;;;;8.05;4.45;;;;;;;;;;5094948;28;20059;-88
2023/07/09 09:46:17;;;;;;;4.53;4.13;;;;;;;;;;5095063;28;20048;-87
2023/07/09 09:48:45;;;;;;;5.28;4.50;;;;;;;;;;5094939;28;20546;-89
2023/07/09 09:51:13;;;;;;;4.80;4.35;;;;;;;;;;5095124;28;20048;-87
2023/07/09 09:53:45;;;;;;;5.20;3.80;;;;;;;;;;5095649;28;20431;-87
2023/07/09 09:56:15;;;;;;;5.78;4.47;;;;;;;;;;5094974;28;20086;-87
2023/07/09 09:58:43;;;;;;;7.78;4.20;;;;;;;;;;5095015;28;20052;-85
2023/07/09 10:01:17;;;;;;;11.10;4.72;;;;;;;;;;5094327;28;20056;-84
2023/07/09 10:03:47;;;;;;;7.13;4.60;;;;;;;;;;5095400;28;20078;-87
2023/07/09 10:06:24;;;;;;;5.93;4.40;;;;;;;;;;5094554;28;20048;-85
2023/07/09 10:08:58;;;;;;;9.05;4.40;;;;;;;;;;5095371;28;20044;-84
2023/07/09 10:11:35;;;;;;;5.90;4.65;;;;;;;;;;5093962;28;20048;-83
2023/07/09 10:14:06;;;;;;;35.58;7.20;;;;;;;;;;5094647;28;20044;-87
2023/07/09 10:16:42;;;;;;;8.27;4.45;;;;;;;;;;5094667;28;20046;-92
2023/07/09 10:19:15;;;;;;;4.25;3.88;;;;;;;;;;5094928;28;20052;-92
2023/07/09 10:21:57;;;;;;;7.88;4.30;;;;;;;;;;5094415;28;20435;-88
2023/07/09 10:24:48;;;;;;;3.83;3.50;;;;;;;;;;5094975;28;20048;-92
2023/07/09 10:27:32;;;;;;;5.43;4.10;;;;;;;;;;5094907;28;20079;-90
2023/07/09 10:30:05;;;;;;;5.22;4.38;;;;;;;;;;5094767;28;20048;-89
2023/07/09 10:32:48;;;;;;;3.88;3.58;;;;;;;;;;5094358;28;20083;-86
2023/07/09 10:35:25;;;;;;;4.63;3.80;;;;;;;;;;5092945;28;20510;-86
2023/07/09 10:38:14;;;;;;;4.25;3.55;;;;;;;;;;5093981;28;20056;-86
2023/07/09 10:40:43;;;;;;;4.30;3.40;;;;;;;;;;5093895;28;20105;-87
2023/07/09 10:43:14;;;;;;;6.05;3.78;;;;;;;;;;5093757;28;20052;-84
2023/07/09 10:45:44;;;;;;;7.30;3.85;;;;;;;;;;5093287;28;20070;-85
2023/07/09 10:48:20;;;;;;;3.55;3.30;;;;;;;;;;5093727;28;20048;-84
2023/07/09 10:50:53;;;;;;;4.07;3.63;;;;;;;;;;5093609;28;20105;-86
2023/07/09 10:53:39;;;;;;;7.07;4.70;;;;;;;;;;5093535;28;20400;-84
2023/07/09 10:56:10;;;;;;;4.45;3.45;;;;;;;;;;5094504;28;20040;-85
2023/07/09 10:58:46;;;;;;;6.70;3.97;;;;;;;;;;5093707;28;20059;-86
2023/07/09 11:01:17;;;;;;;7.45;3.45;;;;;;;;;;5094453;28;20105;-86
2023/07/09 11:03:48;;;;;;;4.70;3.58;;;;;;;;;;5094694;28;20078;-86
2023/07/09 11:06:20;;;;;;;3.75;3.45;;;;;;;;;;5094506;28;20066;-85
2023/07/09 11:08:49;;;;;;;4.47;3.27;;;;;;;;;;5093409;28;20054;-84
2023/07/09 11:11:23;;;;;;;6.55;3.33;;;;;;;;;;5092885;28;20048;-85
2023/07/09 11:13:57;;;;;;;3.42;3.13;;;;;;;;;;5094292;28;20048;-84
2023/07/09 11:16:30;;;;;;;4.80;3.92;;;;;;;;;;5094221;28;20048;-86
2023/07/09 11:19:02;;;;;;;4.13;3.60;;;;;;;;;;5093107;28;20048;-84
2023/07/09 11:21:29;;;;;;;4.05;3.30;;;;;;;;;;5092922;28;20047;-85
2023/07/09 11:23:59;;;;;;;3.60;3.30;;;;;;;;;;5094338;28;20047;-87
2023/07/09 11:26:30;;;;;;;5.57;3.38;;;;;;;;;;5093052;28;20048;-86
2023/07/09 11:29:07;;;;;;;3.15;2.95;;;;;;;;;;5093303;28;20097;-86
2023/07/09 11:31:34;;;;;;;7.68;3.53;;;;;;;;;;5092781;28;20059;-86
2023/07/09 11:34:03;;;;;;;6.13;3.20;;;;;;;;;;5093283;28;20048;-86
2023/07/09 11:36:31;;;;;;;4.85;2.90;;;;;;;;;;5093686;28;20105;-84
2023/07/09 11:38:59;;;;;;;4.28;3.42;;;;;;;;;;5092578;28;20082;-85
2023/07/09 11:41:40;;;;;;;5.88;3.15;;;;;;;;;;5092206;28;20086;-85
2023/07/09 11:44:21;;;;;;;3.75;3.45;;;;;;;;;;5092523;28;20134;-85
2023/07/09 11:47:11;;;;;;;3.70;3.17;;;;;;;;;;5092311;28;20064;-85
2023/07/09 11:50:00;;;;;;;3.08;2.78;;;;;;;;;;5092732;28;20059;-85
2023/07/09 11:52:36;;;;;;;4.45;3.03;;;;;;;;;;5091958;28;20048;-85
2023/07/09 11:55:15;;;;;;;3.65;2.90;;;;;;;;;;5092438;28;20048;-85
2023/07/09 11:57:47;;;;;;;3.20;2.90;;;;;;;;;;5092394;28;20104;-86
2023/07/09 12:00:15;;;;;;;3.95;2.67;;;;;;;;;;5093681;28;20044;-86
2023/07/09 12:02:42;;;;;;;5.40;2.75;;;;;;;;;;5093273;28;20508;-86
2023/07/09 12:05:10;;;;;;;6.32;3.00;;;;;;;;;;5092237;28;20055;-86
2023/07/09 12:07:37;;;;;;;2.80;2.60;;;;;;;;;;5093267;28;20097;-85
2023/07/09 12:10:16;;;;;;;2.90;2.70;;;;;;;;;;5093553;28;20047;-85
2023/07/09 12:12:43;;;;;;;5.00;3.10;;;;;;;;;;5091284;28;20404;-85
2023/07/09 12:15:31;;;;;;;2.92;2.63;;;;;;;;;;5091257;28;20044;-86
2023/07/09 12:18:02;;;;;;;8.05;4.03;;;;;;;;;;5092388;28;20127;-85
2023/07/09 12:20:31;;;;;;;3.00;2.75;;;;;;;;;;5093291;28;20056;-87
2023/07/09 12:22:58;;;;;;;3.95;3.33;;;;;;;;;;5092344;28;20117;-88
2023/07/09 12:25:27;;;;;;;3.40;3.10;;;;;;;;;;5094071;28;20044;-86
2023/07/09 12:27:54;;;;;;;4.45;3.00;;;;;;;;;;5092248;28;20115;-86
2023/07/09 12:30:25;;;;;;;5.43;3.42;;;;;;;;;;5093569;28;20044;-95
2023/07/09 12:32:53;;;;;;;5.45;3.20;;;;;;;;;;5096778;28;20047;-95
2023/07/09 12:35:21;;;;;;;9.63;3.20;;;;;;;;;;5094043;28;20052;-85
2023/07/09 12:37:52;;;;;;;4.05;2.90;;;;;;;;;;5092426;28;20048;-86
2023/07/09 12:40:22;;;;;;;3.30;2.97;;;;;;;;;;5091652;28;20071;-85
2023/07/09 12:42:49;;;;;;;4.53;3.08;;;;;;;;;;5091416;28;20073;-86
2023/07/09 12:45:20;;;;;;;3.83;3.25;;;;;;;;;;5092033;28;20044;-87
2023/07/09 12:47:49;;;;;;;7.25;3.03;;;;;;;;;;5091818;28;20052;-86
2023/07/09 12:50:17;;;;;;;3.25;2.80;;;;;;;;;;5091532;28;20120;-84
2023/07/09 12:52:48;;;;;;;5.05;3.25;;;;;;;;;;5091446;28;20052;-84
2023/07/09 12:55:28;;;;;;;3.55;2.97;;;;;;;;;;5092929;28;20048;-85
2023/07/09 12:57:56;;;;;;;3.33;3.00;;;;;;;;;;5092412;28;20055;-84
2023/07/09 13:00:27;;;;;;;3.47;3.00;;;;;;;;;;5094978;28;20453;-85
2023/07/09 13:02:55;;;;;;;5.55;3.15;;;;;;;;;;5096836;28;20073;-86
2023/07/09 13:05:24;;;;;;;3.42;3.13;;;;;;;;;;5096308;28;20040;-87
2023/07/09 13:07:59;;;;;;;3.58;2.83;;;;;;;;;;5097759;28;20052;-88
2023/07/09 13:10:29;;;;;;;4.20;3.35;;;;;;;;;;5097418;28;20101;-85
2023/07/09 13:12:57;;;;;;;5.13;3.30;;;;;;;;;;5095607;28;20051;-85
2023/07/09 13:15:38;;;;;;;9.45;4.35;;;;;;;;;;5095440;28;20059;-87
2023/07/09 13:18:07;;;;;;;6.38;3.25;;;;;;;;;;5096761;28;20048;-86
2023/07/09 13:20:37;;;;;;;7.00;5.15;;;;;;;;;;5094801;28;20058;-87
2023/07/09 13:23:09;;;;;;;3.78;3.33;;;;;;;;;;5095540;28;20097;-86
2023/07/09 13:25:38;;;;;;;4.78;3.10;;;;;;;;;;5096650;28;20047;-86
2023/07/09 13:28:17;;;;;;;3.88;3.58;;;;;;;;;;5096644;28;20048;-87
2023/07/09 13:30:44;;;;;;;9.55;7.95;;;;;;;;;;5095414;28;20484;-87
2023/07/09 13:33:12;;;;;;;4.47;3.72;;;;;;;;;;5095598;28;20044;-87
2023/07/09 13:35:39;;;;;;;3.92;3.25;;;;;;;;;;5096404;28;20416;-87
2023/07/09 13:38:14;;;;;;;5.43;3.13;;;;;;;;;;5095514;28;20048;-86
2023/07/09 13:40:42;;;;;;;3.53;3.20;;;;;;;;;;5095159;28;20060;-87
2023/07/09 13:43:19;;;;;;;5.57;2.83;;;;;;;;;;5096083;28;20121;-85
2023/07/09 13:45:48;;;;;;;3.97;3.15;;;;;;;;;;5094886;28;20056;-86
2023/07/09 13:48:16;;;;;;;4.72;3.05;;;;;;;;;;5094972;28;20048;-86
2023/07/09 13:50:45;;;;;;;6.00;2.88;;;;;;;;;;5094646;28;20412;-85
2023/07/09 13:53:14;;;;;;;5.53;3.53;;;;;;;;;;5095051;28;20044;-87
2023/07/09 13:55:42;;;;;;;5.43;3.13;;;;;;;;;;5094911;28;20101;-86
2023/07/09 13:58:10;;;;;;;3.17;2.80;;;;;;;;;;5095738;28;20048;-85
2023/07/09 14:00:38;;;;;;;3.45;3.00;;;;;;;;;;5095757;28;20458;-85
2023/07/09 14:03:15;;;;;;;4.95;3.05;;;;;;;;;;5095802;28;20059;-86
2023/07/09 14:05:42;;;;;;;3.65;2.85;;;;;;;;;;5095178;28;20050;-88
2023/07/09 14:08:10;;;;;;;7.10;3.58;;;;;;;;;;5095098;28;20454;-87
2023/07/09 14:10:39;;;;;;;4.43;3.33;;;;;;;;;;5094062;28;20480;-87
2023/07/09 14:13:09;;;;;;;4.63;3.47;;;;;;;;;;5094431;28;20052;-87
2023/07/09 14:15:37;;;;;;;5.30;3.10;;;;;;;;;;5095769;28;20044;-85
2023/07/09 14:18:05;;;;;;;9.40;3.97;;;;;;;;;;5095960;28;20056;-90
2023/07/09 14:20:33;;;;;;;3.95;3.05;;;;;;;;;;5095945;28;20157;-87
2023/07/09 14:23:00;;;;;;;11.55;4.70;;;;;;;;;;5094340;28;20462;-86
2023/07/09 14:25:28;;;;;;;5.95;3.67;;;;;;;;;;5094324;28;20039;-86
2023/07/09 14:27:55;;;;;;;6.55;3.95;;;;;;;;;;5094900;28;20052;-91
2023/07/09 14:30:23;;;;;;;3.83;3.45;;;;;;;;;;5094138;28;20039;-85
2023/07/09 14:32:53;;;;;;;6.28;3.25;;;;;;;;;;5094042;28;20457;-86
2023/07/09 14:35:22;;;;;;;4.55;3.50;;;;;;;;;;5095142;28;20048;-86
2023/07/09 14:37:50;;;;;;;3.28;3.08;;;;;;;;;;5093956;28;20496;-86
2023/07/09 14:40:19;;;;;;;4.75;3.38;;;;;;;;;;5094305;28;20056;-86
2023/07/09 14:42:47;;;;;;;4.50;3.50;;;;;;;;;;5093947;28;20542;-87
2023/07/09 14:45:23;;;;;;;4.28;2.95;;;;;;;;;;5093319;28;20059;-86
2023/07/09 14:47:51;;;;;;;5.53;3.33;;;;;;;;;;5094228;28;20047;-86
2023/07/09 14:50:19;;;;;;;6.63;3.70;;;;;;;;;;5093587;28;20086;-85
2023/07/09 14:52:47;;;;;;;3.03;2.83;;;;;;;;;;5093451;28;20040;-86
2023/07/09 14:55:15;;;;;;;3.45;3.25;;;;;;;;;;5094717;28;20458;-87